createdAt,value
2018-10-21T00:01:59.018Z,15.80
2018-10-21T00:04:26.411Z,14.50
2018-10-21T00:06:53.673Z,16.57
2018-10-21T00:09:21.742Z,14.83
2018-10-21T00:11:49.234Z,13.87
2018-10-21T00:14:16.514Z,13.30
2018-10-21T00:16:43.766Z,14.47
2018-10-21T00:19:11.067Z,13.07
2018-10-21T00:21:38.368Z,13.50
2018-10-21T00:24:05.919Z,15.77
2018-10-21T00:26:33.453Z,11.50
2018-10-21T00:29:00.914Z,11.43
2018-10-21T00:31:28.304Z,13.17
2018-10-21T00:33:55.741Z,14.17
2018-10-21T00:36:23.071Z,16.43
2018-10-21T00:38:50.379Z,14.80
2018-10-21T00:41:21.200Z,14.13
2018-10-21T00:43:48.320Z,13.77
2018-10-21T00:46:15.439Z,13.70
2018-10-21T00:48:42.613Z,14.57
2018-10-21T00:51:09.743Z,16.77
2018-10-21T00:53:36.892Z,17.33
2018-10-21T00:56:04.093Z,15.80
2018-10-21T00:58:31.257Z,14.67
2018-10-21T01:00:58.373Z,15.07
2018-10-21T01:03:25.556Z,12.77
2018-10-21T01:05:52.729Z,11.30
2018-10-21T01:08:19.929Z,10.40
2018-10-21T01:10:47.105Z,9.80
2018-10-21T01:13:14.229Z,11.80
2018-10-21T01:15:41.370Z,14.33
2018-10-21T01:18:08.574Z,11.70
2018-10-21T01:20:35.723Z,11.43
2018-10-21T01:23:02.883Z,13.80
2018-10-21T01:25:30.112Z,12.60
2018-10-21T01:27:57.268Z,11.97
2018-10-21T01:30:24.388Z,11.43
2018-10-21T01:32:51.567Z,14.73
2018-10-21T01:35:18.693Z,15.17
2018-10-21T01:37:45.860Z,13.83
2018-10-21T01:40:46.799Z,15.63
2018-10-21T01:43:15.219Z,14.60
2018-10-21T01:45:42.336Z,12.27
2018-10-21T01:48:11.546Z,17.03
2018-10-21T01:50:38.699Z,14.50
2018-10-21T01:53:07.008Z,14.10
2018-10-21T01:55:34.181Z,12.67
2018-10-21T01:58:01.596Z,13.07
2018-10-21T02:00:29.560Z,10.33
2018-10-21T02:02:57.175Z,11.37
2018-10-21T02:05:24.577Z,10.10
2018-10-21T02:07:51.944Z,12.73
2018-10-21T02:10:19.109Z,10.83
2018-10-21T02:12:46.308Z,10.10
2018-10-21T02:15:13.882Z,13.80
2018-10-21T02:17:41.306Z,11.50
2018-10-21T02:20:09.621Z,12.40
2018-10-21T02:22:36.836Z,16.27
2018-10-21T02:25:04.352Z,14.17
2018-10-21T02:27:31.529Z,10.60
2018-10-21T02:29:58.649Z,11.40
2018-10-21T02:32:25.825Z,10.33
2018-10-21T02:34:52.957Z,13.10
2018-10-21T02:37:20.073Z,11.13
2018-10-21T02:39:47.262Z,12.07
2018-10-21T02:42:14.413Z,10.73
2018-10-21T02:44:41.552Z,9.37
2018-10-21T02:47:08.734Z,12.60
2018-10-21T02:49:35.863Z,10.83
2018-10-21T02:52:09.093Z,9.83
2018-10-21T02:54:36.512Z,8.67
2018-10-21T02:57:05.421Z,9.00
2018-10-21T02:59:32.584Z,10.73
2018-10-21T03:01:59.725Z,8.23
2018-10-21T03:04:26.847Z,11.00
2018-10-21T03:06:54.028Z,7.70
2018-10-21T03:09:21.249Z,7.60
2018-10-21T03:11:48.295Z,12.20
2018-10-21T03:14:15.539Z,8.33
2018-10-21T03:16:42.671Z,7.47
2018-10-21T03:19:09.813Z,8.00
2018-10-21T03:21:37.060Z,7.33
2018-10-21T03:24:04.433Z,6.63
2018-10-21T03:26:31.550Z,7.83
2018-10-21T03:28:58.724Z,10.47
2018-10-21T03:31:25.842Z,9.23
2018-10-21T03:33:53.048Z,9.30
2018-10-21T03:36:20.185Z,9.50
2018-10-21T03:38:47.304Z,10.20
2018-10-21T03:41:14.420Z,9.40
2018-10-21T03:43:41.600Z,9.47
2018-10-21T03:46:10.237Z,12.83
2018-10-21T03:48:37.349Z,11.90
2018-10-21T03:51:04.540Z,8.30
2018-10-21T03:53:31.645Z,8.53
2018-10-21T03:55:58.765Z,7.73
2018-10-21T03:58:25.949Z,6.20
2018-10-21T04:00:53.078Z,7.13
2018-10-21T04:03:20.187Z,8.77
2018-10-21T04:05:47.344Z,8.57
2018-10-21T04:08:14.483Z,5.80
2018-10-21T04:10:41.600Z,6.27
2018-10-21T04:13:08.777Z,6.17
2018-10-21T04:15:35.994Z,5.80
2018-10-21T04:18:03.229Z,6.43
2018-10-21T04:20:30.425Z,7.33
2018-10-21T04:22:58.594Z,9.43
2018-10-21T04:25:26.728Z,8.57
2018-10-21T04:27:54.970Z,8.07
2018-10-21T04:30:23.159Z,8.13
2018-10-21T04:33:08.622Z,8.37
2018-10-21T04:35:35.775Z,9.07
2018-10-21T04:38:39.645Z,8.77
2018-10-21T04:41:06.763Z,10.27
2018-10-21T04:43:33.877Z,7.80
2018-10-21T04:46:01.169Z,8.67
2018-10-21T04:48:28.270Z,8.53
2018-10-21T04:50:55.399Z,8.60
2018-10-21T04:53:22.582Z,10.37
2018-10-21T04:55:49.716Z,8.10
2018-10-21T04:58:16.958Z,5.90
2018-10-21T05:00:44.136Z,7.23
2018-10-21T05:03:11.177Z,13.47
2018-10-21T05:05:38.289Z,13.20
2018-10-21T05:08:05.485Z,25.53
2018-10-21T05:10:33.636Z,20.87
2018-10-21T05:13:00.876Z,59.47
2018-10-21T05:15:29.342Z,18.37
2018-10-21T05:17:56.564Z,15.27
2018-10-21T05:20:23.685Z,15.27
2018-10-21T05:22:50.867Z,16.10
2018-10-21T05:25:18.026Z,13.67
2018-10-21T05:27:45.183Z,24.33
2018-10-21T05:30:12.977Z,14.27
2018-10-21T05:32:40.501Z,22.17
2018-10-21T05:35:08.792Z,18.50
2018-10-21T05:37:36.385Z,31.17
2018-10-21T05:40:03.640Z,46.50
2018-10-21T05:42:30.773Z,24.00
2018-10-21T05:44:58.140Z,24.30
2018-10-21T05:47:25.261Z,22.57
2018-10-21T05:49:52.380Z,16.33
2018-10-21T05:52:19.560Z,13.43
2018-10-21T05:54:46.686Z,10.70
2018-10-21T05:57:13.788Z,15.97
2018-10-21T05:59:40.969Z,14.77
2018-10-21T06:02:08.088Z,11.57
2018-10-21T06:04:35.209Z,11.13
2018-10-21T06:07:02.385Z,12.03
2018-10-21T06:09:29.505Z,11.47
2018-10-21T06:11:56.632Z,12.23
2018-10-21T06:14:23.787Z,38.33
2018-10-21T06:16:54.434Z,69.83
2018-10-21T06:20:01.851Z,14.83
2018-10-21T06:22:33.565Z,51.20
2018-10-21T06:25:00.663Z,15.03
2018-10-21T06:27:27.895Z,91.23
2018-10-21T06:29:55.015Z,93.60
2018-10-21T06:32:22.196Z,44.10
2018-10-21T06:34:49.351Z,33.47
2018-10-21T06:37:16.460Z,11.20
2018-10-21T06:39:43.569Z,10.27
2018-10-21T06:42:10.883Z,12.20
2018-10-21T06:44:38.202Z,11.50
2018-10-21T06:47:05.550Z,12.33
2018-10-21T06:49:32.918Z,12.13
2018-10-21T06:52:00.193Z,10.70
2018-10-21T06:54:27.590Z,9.70
2018-10-21T06:56:55.032Z,10.57
2018-10-21T06:59:22.318Z,9.93
2018-10-21T07:01:49.935Z,10.20
2018-10-21T07:04:17.503Z,11.10
2018-10-21T07:06:44.946Z,10.57
2018-10-21T07:09:12.351Z,12.40
2018-10-21T07:11:39.853Z,14.87
2018-10-21T07:14:07.319Z,11.53
2018-10-21T07:16:34.805Z,10.80
2018-10-21T07:19:02.102Z,14.40
2018-10-21T07:21:29.414Z,11.13
2018-10-21T07:23:56.756Z,13.37
2018-10-21T07:26:24.136Z,15.67
2018-10-21T07:28:51.746Z,15.37
2018-10-21T07:31:19.451Z,17.77
2018-10-21T07:33:47.138Z,19.93
2018-10-21T07:36:14.945Z,16.33
2018-10-21T07:38:42.921Z,15.60
2018-10-21T07:41:10.859Z,17.50
2018-10-21T07:43:38.416Z,14.10
2018-10-21T07:46:05.993Z,15.13
2018-10-21T07:48:33.561Z,14.60
2018-10-21T07:51:01.799Z,15.90
2018-10-21T07:53:29.373Z,15.40
2018-10-21T07:55:56.993Z,16.50
2018-10-21T07:58:24.568Z,19.50
2018-10-21T08:00:52.124Z,18.90
2018-10-21T08:03:19.658Z,15.17
2018-10-21T08:05:58.726Z,17.67
2018-10-21T08:08:27.239Z,20.80
2018-10-21T08:10:54.732Z,19.23
2018-10-21T08:13:23.712Z,22.27
2018-10-21T08:15:51.290Z,20.93
2018-10-21T08:18:18.626Z,20.80
2018-10-21T08:20:47.154Z,16.77
2018-10-21T08:23:15.565Z,17.13
2018-10-21T08:25:44.298Z,15.43
2018-10-21T08:28:11.672Z,14.50
2018-10-21T08:30:39.215Z,14.03
2018-10-21T08:33:06.988Z,18.80
2018-10-21T08:35:34.618Z,15.47
2018-10-21T08:38:02.621Z,17.83
2018-10-21T08:40:30.018Z,13.40
2018-10-21T08:42:57.262Z,14.93
2018-10-21T08:45:25.004Z,13.63
2018-10-21T08:47:52.693Z,14.33
2018-10-21T08:50:20.124Z,13.00
2018-10-21T08:52:47.543Z,14.93
2018-10-21T08:55:15.316Z,16.13
2018-10-21T08:57:43.060Z,14.30
2018-10-21T09:00:13.090Z,17.07
2018-10-21T09:02:40.951Z,15.93
2018-10-21T09:05:09.982Z,19.20
2018-10-21T09:07:37.486Z,16.00
2018-10-21T09:10:05.815Z,16.00
2018-10-21T09:12:33.364Z,16.93
2018-10-21T09:15:00.715Z,15.13
2018-10-21T09:17:28.114Z,15.30
2018-10-21T09:19:55.463Z,16.13
2018-10-21T09:22:23.010Z,15.63
2018-10-21T09:24:50.784Z,16.53
2018-10-21T09:27:18.374Z,17.17
2018-10-21T09:29:45.906Z,15.33
2018-10-21T09:32:13.260Z,15.63
2018-10-21T09:34:40.725Z,16.73
2018-10-21T09:37:08.260Z,13.77
2018-10-21T09:39:35.987Z,13.67
2018-10-21T09:42:03.464Z,13.40
2018-10-21T09:44:31.126Z,13.77
2018-10-21T09:46:58.623Z,13.07
2018-10-21T09:49:25.886Z,13.87
2018-10-21T09:51:53.280Z,11.53
2018-10-21T09:54:20.876Z,10.57
2018-10-21T09:56:48.419Z,10.37
2018-10-21T09:59:15.882Z,14.73
2018-10-21T10:01:48.834Z,11.17
2018-10-21T10:04:16.683Z,13.93
2018-10-21T10:06:44.036Z,10.87
2018-10-21T10:09:12.527Z,10.63
2018-10-21T10:11:40.139Z,11.83
2018-10-21T10:14:07.546Z,12.27
2018-10-21T10:16:35.243Z,9.50
2018-10-21T10:19:03.535Z,11.70
2018-10-21T10:21:31.368Z,10.03
2018-10-21T10:23:59.051Z,10.83
2018-10-21T10:26:26.876Z,9.80
2018-10-21T10:28:54.687Z,7.93
2018-10-21T10:31:22.647Z,8.57
2018-10-21T10:33:50.542Z,8.87
2018-10-21T10:36:18.245Z,7.93
2018-10-21T10:38:45.812Z,10.17
2018-10-21T10:41:13.696Z,6.90
2018-10-21T10:43:41.660Z,7.80
2018-10-21T10:46:09.651Z,7.27
2018-10-21T10:48:37.299Z,5.00
2018-10-21T10:51:05.947Z,6.87
2018-10-21T10:53:34.075Z,11.67
2018-10-21T10:56:01.655Z,8.70
2018-10-21T10:58:29.499Z,8.93
2018-10-21T11:00:57.451Z,7.97
2018-10-21T11:03:25.164Z,11.40
2018-10-21T11:05:53.151Z,8.40
2018-10-21T11:08:20.962Z,8.23
2018-10-21T11:10:48.568Z,7.33
2018-10-21T11:13:16.905Z,8.67
2018-10-21T11:15:44.871Z,8.33
2018-10-21T11:18:12.499Z,8.87
2018-10-21T11:20:39.861Z,8.27
2018-10-21T11:23:07.514Z,9.73
2018-10-21T11:25:35.065Z,6.30
2018-10-21T11:28:02.431Z,7.80
2018-10-21T11:30:30.373Z,8.53
2018-10-21T11:32:58.000Z,7.50
2018-10-21T11:35:26.076Z,8.97
2018-10-21T11:37:53.848Z,9.00
2018-10-21T11:40:21.555Z,9.70
2018-10-21T11:42:49.207Z,5.13
2018-10-21T11:45:16.433Z,6.83
2018-10-21T11:47:43.942Z,6.93
2018-10-21T11:50:11.267Z,3.43
2018-10-21T11:52:39.004Z,6.50
2018-10-21T11:55:07.489Z,5.63
2018-10-21T11:57:34.738Z,8.17
2018-10-21T12:00:02.528Z,4.63
2018-10-21T12:02:29.903Z,8.27
2018-10-21T12:04:57.915Z,4.67
2018-10-21T12:07:25.604Z,6.97
2018-10-21T12:09:53.243Z,4.87
2018-10-21T12:12:20.772Z,4.67
2018-10-21T12:14:48.545Z,5.20
2018-10-21T12:17:16.329Z,5.47
2018-10-21T12:19:44.648Z,4.27
2018-10-21T12:22:12.143Z,5.83
2018-10-21T12:24:39.489Z,7.00
2018-10-21T12:27:06.790Z,9.27
2018-10-21T12:29:34.445Z,5.00
2018-10-21T12:32:01.759Z,6.37
2018-10-21T12:34:29.133Z,5.73
2018-10-21T12:36:56.398Z,7.20
2018-10-21T12:39:23.797Z,6.57
2018-10-21T12:41:51.379Z,4.93
2018-10-21T12:44:24.549Z,5.50
2018-10-21T12:46:51.776Z,5.40
2018-10-21T12:49:19.034Z,4.80
2018-10-21T12:51:46.238Z,6.27
2018-10-21T12:54:13.538Z,6.80
2018-10-21T12:56:40.669Z,4.80
2018-10-21T12:59:07.934Z,7.90
2018-10-21T13:01:35.161Z,5.13
2018-10-21T13:04:02.449Z,8.33
2018-10-21T13:06:29.708Z,5.20
2018-10-21T13:08:56.881Z,4.77
2018-10-21T13:11:24.096Z,7.90
2018-10-21T13:13:51.337Z,4.50
2018-10-21T13:16:18.598Z,8.60
2018-10-21T13:18:45.757Z,7.30
2018-10-21T13:21:13.026Z,6.83
2018-10-21T13:23:40.217Z,7.77
2018-10-21T13:26:07.404Z,6.07
2018-10-21T13:28:34.689Z,6.70
2018-10-21T13:31:01.990Z,7.47
2018-10-21T13:33:29.141Z,6.20
2018-10-21T13:35:57.270Z,6.33
2018-10-21T13:38:24.440Z,6.37
2018-10-21T13:40:51.649Z,7.80
2018-10-21T13:43:19.008Z,8.37
2018-10-21T13:45:46.233Z,5.00
2018-10-21T13:48:13.411Z,6.67
2018-10-21T13:50:40.669Z,4.53
2018-10-21T13:53:07.969Z,6.10
2018-10-21T13:55:35.065Z,7.43
2018-10-21T13:58:02.354Z,7.43
2018-10-21T14:00:29.527Z,4.63
2018-10-21T14:02:56.744Z,5.70
2018-10-21T14:05:23.964Z,6.97
2018-10-21T14:07:51.218Z,6.20
2018-10-21T14:10:18.516Z,7.87
2018-10-21T14:12:45.701Z,4.60
2018-10-21T14:15:12.937Z,7.83
2018-10-21T14:17:40.115Z,5.37
2018-10-21T14:20:08.653Z,6.70
2018-10-21T14:22:35.878Z,5.10
2018-10-21T14:25:03.120Z,9.63
2018-10-21T14:27:30.389Z,5.20
2018-10-21T14:29:57.630Z,5.60
2018-10-21T14:32:24.836Z,5.67
2018-10-21T14:34:52.058Z,8.50
2018-10-21T14:37:19.262Z,7.33
2018-10-21T14:39:46.449Z,9.73
2018-10-21T14:42:13.757Z,8.83
2018-10-21T14:44:40.911Z,7.43
2018-10-21T14:47:08.193Z,6.93
2018-10-21T14:49:35.442Z,7.90
2018-10-21T14:52:02.874Z,5.67
2018-10-21T14:54:30.074Z,7.27
2018-10-21T14:56:57.314Z,7.37
2018-10-21T14:59:24.549Z,6.03
2018-10-21T15:01:51.788Z,7.63
2018-10-21T15:04:19.029Z,4.50
2018-10-21T15:06:46.278Z,5.90
2018-10-21T15:09:14.195Z,5.53
2018-10-21T15:11:41.868Z,6.83
2018-10-21T15:14:10.205Z,7.40
2018-10-21T15:16:37.384Z,6.93
2018-10-21T15:19:04.807Z,7.10
2018-10-21T15:21:32.002Z,8.87
2018-10-21T15:23:59.200Z,8.07
2018-10-21T15:26:26.438Z,8.20
2018-10-21T15:28:53.636Z,5.53
2018-10-21T15:31:20.849Z,4.20
2018-10-21T15:33:48.082Z,4.03
2018-10-21T15:36:15.278Z,7.97
2018-10-21T15:38:42.440Z,4.43
2018-10-21T15:41:09.699Z,5.60
2018-10-21T15:43:36.934Z,6.83
2018-10-21T15:46:04.212Z,5.67
2018-10-21T15:48:31.523Z,5.93
2018-10-21T15:50:58.660Z,5.40
2018-10-21T15:53:25.849Z,6.50
2018-10-21T15:55:53.109Z,5.90
2018-10-21T15:58:20.296Z,6.70
2018-10-21T16:00:47.487Z,6.03
2018-10-21T16:03:14.705Z,6.20
2018-10-21T16:05:41.898Z,7.63
2018-10-21T16:08:09.143Z,9.03
2018-10-21T16:10:36.570Z,6.57
2018-10-21T16:13:04.984Z,7.27
2018-10-21T16:15:32.223Z,9.07
2018-10-21T16:17:59.495Z,8.43
2018-10-21T16:20:26.666Z,9.10
2018-10-21T16:22:53.864Z,9.97
2018-10-21T16:25:21.209Z,5.23
2018-10-21T16:27:48.380Z,9.80
2018-10-21T16:30:16.229Z,11.83
2018-10-21T16:32:44.303Z,16.63
2018-10-21T16:35:11.966Z,22.50
2018-10-21T16:37:39.711Z,21.27
2018-10-21T16:40:08.773Z,22.97
2018-10-21T16:42:36.074Z,16.43
2018-10-21T16:45:03.420Z,15.93
2018-10-21T16:47:30.664Z,16.93
2018-10-21T16:49:57.870Z,18.03
2018-10-21T16:52:25.064Z,14.83
2018-10-21T16:54:52.319Z,13.37
2018-10-21T16:57:19.547Z,20.60
2018-10-21T16:59:46.791Z,13.77
2018-10-21T17:02:14.013Z,17.17
2018-10-21T17:04:41.188Z,16.73
2018-10-21T17:07:08.463Z,19.10
2018-10-21T17:09:35.860Z,16.03
2018-10-21T17:12:02.994Z,17.63
2018-10-21T17:14:30.241Z,17.70
2018-10-21T17:16:57.530Z,16.40
2018-10-21T17:19:24.722Z,21.10
2018-10-21T17:21:51.906Z,17.43
2018-10-21T17:24:19.244Z,17.17
2018-10-21T17:26:46.385Z,16.03
2018-10-21T17:29:13.598Z,13.97
2018-10-21T17:31:40.859Z,19.37
2018-10-21T17:34:08.105Z,19.40
2018-10-21T17:36:35.250Z,19.37
2018-10-21T17:39:02.820Z,18.13
2018-10-21T17:41:30.013Z,18.93
2018-10-21T17:43:57.216Z,20.27
2018-10-21T17:46:24.496Z,20.40
2018-10-21T17:48:51.673Z,24.70
2018-10-21T17:51:18.846Z,27.27
2018-10-21T17:53:46.139Z,27.53
2018-10-21T17:56:13.319Z,25.63
2018-10-21T17:58:40.541Z,22.63
2018-10-21T18:01:07.854Z,19.47
2018-10-21T18:03:35.052Z,21.87
2018-10-21T18:06:02.318Z,24.97
2018-10-21T18:08:29.566Z,28.73
2018-10-21T18:10:56.758Z,26.60
2018-10-21T18:13:24.036Z,31.90
2018-10-21T18:15:51.290Z,27.43
2018-10-21T18:18:18.586Z,28.87
2018-10-21T18:20:45.783Z,31.17
2018-10-21T18:23:13.012Z,33.53
2018-10-21T18:25:40.193Z,32.77
2018-10-21T18:28:07.425Z,28.87
2018-10-21T18:30:34.673Z,29.63
2018-10-21T18:33:01.942Z,30.93
2018-10-21T18:35:29.146Z,25.87
2018-10-21T18:37:56.399Z,25.93
2018-10-21T18:40:23.749Z,23.40
2018-10-21T18:42:50.897Z,23.83
2018-10-21T18:45:18.153Z,22.83
2018-10-21T18:47:45.478Z,24.90
2018-10-21T18:50:13.578Z,23.33
2018-10-21T18:52:40.906Z,21.17
2018-10-21T18:55:08.683Z,23.13
2018-10-21T18:57:35.885Z,23.90
2018-10-21T19:00:03.237Z,23.40
2018-10-21T19:02:30.420Z,19.80
2018-10-21T19:04:57.601Z,22.37
2018-10-21T19:07:24.910Z,21.17
2018-10-21T19:09:52.200Z,17.23
2018-10-21T19:12:19.556Z,18.33
2018-10-21T19:14:46.809Z,20.40
2018-10-21T19:17:14.002Z,24.67
2018-10-21T19:19:41.247Z,24.53
2018-10-21T19:22:08.512Z,36.13
2018-10-21T19:24:35.657Z,36.97
2018-10-21T19:27:02.860Z,34.77
2018-10-21T19:29:30.113Z,38.60
2018-10-21T19:31:57.313Z,33.70
2018-10-21T19:34:24.687Z,31.57
2018-10-21T19:36:51.930Z,36.07
2018-10-21T19:39:19.143Z,34.50
2018-10-21T19:41:46.421Z,27.17
2018-10-21T19:44:13.657Z,31.63
2018-10-21T19:46:40.845Z,30.67
2018-10-21T19:49:08.661Z,26.80
2018-10-21T19:51:35.958Z,24.40
2018-10-21T19:54:03.177Z,21.40
2018-10-21T19:56:31.326Z,19.63
2018-10-21T19:58:58.665Z,23.73
2018-10-21T20:01:25.860Z,22.73
2018-10-21T20:03:53.097Z,19.77
2018-10-21T20:06:20.450Z,18.33
2018-10-21T20:08:47.649Z,16.97
2018-10-21T20:11:14.853Z,18.57
2018-10-21T20:13:42.088Z,18.83
2018-10-21T20:16:09.323Z,18.67
2018-10-21T20:18:36.658Z,16.63
2018-10-21T20:21:04.542Z,16.20
2018-10-21T20:23:31.739Z,18.17
2018-10-21T20:25:58.929Z,17.90
2018-10-21T20:28:26.157Z,17.63
2018-10-21T20:30:53.471Z,16.43
2018-10-21T20:33:20.699Z,14.07
2018-10-21T20:35:47.918Z,16.30
2018-10-21T20:38:15.117Z,14.07
2018-10-21T20:40:42.323Z,14.63
2018-10-21T20:43:09.635Z,14.17
2018-10-21T20:45:36.836Z,11.33
2018-10-21T20:48:04.082Z,15.90
2018-10-21T20:50:31.314Z,14.97
2018-10-21T20:52:58.609Z,14.77
2018-10-21T20:55:25.802Z,14.27
2018-10-21T20:57:53.092Z,17.93
2018-10-21T21:00:20.247Z,18.33
2018-10-21T21:02:47.429Z,17.57
2018-10-21T21:05:14.672Z,17.97
2018-10-21T21:07:41.877Z,15.57
2018-10-21T21:10:09.538Z,12.93
2018-10-21T21:12:36.734Z,17.87
2018-10-21T21:15:04.294Z,13.50
2018-10-21T21:17:31.492Z,13.33
2018-10-21T21:19:58.833Z,15.70
2018-10-21T21:22:26.014Z,15.37
2018-10-21T21:24:53.229Z,13.90
2018-10-21T21:27:20.513Z,14.47
2018-10-21T21:29:47.705Z,14.93
2018-10-21T21:32:14.885Z,15.50
2018-10-21T21:34:42.100Z,17.10
2018-10-21T21:37:09.301Z,11.47
2018-10-21T21:39:36.486Z,12.93
2018-10-21T21:42:04.137Z,13.53
2018-10-21T21:44:31.378Z,15.27
2018-10-21T21:46:58.574Z,13.80
2018-10-21T21:49:25.802Z,12.87
2018-10-21T21:51:53.001Z,11.40
2018-10-21T21:54:20.181Z,10.03
2018-10-21T21:56:47.421Z,14.07
2018-10-21T21:59:14.636Z,12.27
2018-10-21T22:01:41.850Z,12.80
2018-10-21T22:04:09.168Z,9.83
2018-10-21T22:06:36.675Z,10.13
2018-10-21T22:09:09.022Z,9.00
2018-10-21T22:11:36.374Z,13.20
2018-10-21T22:14:03.765Z,11.37
2018-10-21T22:16:31.046Z,10.77
2018-10-21T22:18:58.236Z,8.60
2018-10-21T22:21:25.423Z,12.63
2018-10-21T22:23:52.701Z,10.00
2018-10-21T22:26:19.948Z,12.37
2018-10-21T22:28:47.134Z,8.57
2018-10-21T22:31:14.370Z,8.70
2018-10-21T22:33:41.559Z,9.93
2018-10-21T22:36:08.794Z,8.60
2018-10-21T22:38:36.080Z,9.33
2018-10-21T22:41:04.201Z,8.00
2018-10-21T22:43:31.389Z,11.20
2018-10-21T22:45:58.751Z,7.53
2018-10-21T22:48:25.955Z,7.23
2018-10-21T22:50:53.143Z,8.43
2018-10-21T22:53:20.380Z,9.93
2018-10-21T22:55:47.559Z,9.87
2018-10-21T22:58:14.817Z,10.93
2018-10-21T23:00:42.004Z,8.97
2018-10-21T23:03:09.205Z,10.40
2018-10-21T23:05:36.393Z,10.30
2018-10-21T23:08:03.667Z,8.73
2018-10-21T23:10:30.859Z,11.47
2018-10-21T23:12:58.256Z,8.60
2018-10-21T23:15:25.509Z,10.40
2018-10-21T23:17:52.722Z,10.87
2018-10-21T23:20:19.978Z,8.40
2018-10-21T23:22:47.242Z,12.30
2018-10-21T23:25:14.458Z,10.47
2018-10-21T23:27:41.645Z,9.67
2018-10-21T23:30:08.932Z,10.03
2018-10-21T23:32:36.111Z,11.53
2018-10-21T23:35:03.407Z,12.30
2018-10-21T23:37:30.657Z,11.77
2018-10-21T23:39:57.872Z,8.37
2018-10-21T23:42:25.095Z,8.23
2018-10-21T23:44:52.343Z,8.97
2018-10-21T23:47:19.615Z,10.37
2018-10-21T23:49:46.813Z,12.77
2018-10-21T23:52:14.137Z,8.60
2018-10-21T23:54:41.350Z,10.60
2018-10-21T23:57:08.537Z,9.67
2018-10-21T23:59:36.446Z,9.60
